NaeSS Absolute — V7JC6 — position and weather

sailwx.info

Track history (hours):
 
Tides and Currents Weather Stations Pressure Air Temp Water Temp Dewpoint Dewpoint Depression Visibility Wind Speed Wind Dir Waves Ship Positions

NaeSS Absolute

Last reported at 2017-Dec-20 05:37 UTC. Time now 2018-Jan-22 16:22 UTC.
Position N 35°35' E 014°34'.
Warning: this ship's position is 33 days out of date.

Length 200 m; draft 13.2 m.

Type: Cargo ship. MMSI: 538006033.

Date/timePositionNaut miles runAvg speedWind from/ knotsBaromVisibWave heightAir tempDewpointWater temp
2017-Dec-20 05:37N 35°35' E 014°34'211.7
2017-Dec-20 05:29N 35°35' E 014°32'611.1
2017-Dec-20 05:00N 35°38' E 014°27'611.4
2017-Dec-20 04:30N 35°42' E 014°21'611.8
2017-Dec-20 04:00N 35°45' E 014°15'612.2
2017-Dec-20 03:30N 35°48' E 014°09'612.2
2017-Dec-20 03:00N 35°52' E 014°02'611.9
2017-Dec-20 02:30N 35°55' E 013°56'611.8
2017-Dec-20 02:00N 35°58' E 013°50'611.8
2017-Dec-20 01:30N 36°01' E 013°44'  
2017-Dec-16 22:38N 36°01' W 005°14'212.4
2017-Dec-16 22:30N 36°01' W 005°16'511.1
2017-Dec-16 22:01N 36°02' W 005°22'4 8.7
2017-Dec-16 21:31N 36°07' W 005°22'0 0.1
2017-Dec-16 18:17N 36°07' W 005°22'0 0.0
2017-Dec-16 17:14N 36°07' W 005°22'0 0.1
2017-Dec-16 16:17N 36°07' W 005°22'0 0.1
2017-Dec-16 15:50N 36°07' W 005°22'0 0.1
2017-Dec-16 15:29N 36°07' W 005°22'0 0.0
2017-Dec-16 14:59N 36°07' W 005°22'0 0.1
2017-Dec-16 14:29N 36°07' W 005°22'0 0.1
2017-Dec-16 13:59N 36°07' W 005°22'0 0.0
2017-Dec-16 12:47N 36°07' W 005°22'0 0.1
2017-Dec-16 12:20N 36°07' W 005°22'0 0.0
2017-Dec-16 11:59N 36°07' W 005°22'0 0.1
2017-Dec-16 11:29N 36°07' W 005°22'0 0.1
2017-Dec-16 10:23N 36°07' W 005°22'0 0.0
2017-Dec-16 09:57N 36°07' W 005°22'0 0.0
2017-Dec-16 09:30N 36°07' W 005°22'0 0.0
2017-Dec-16 08:59N 36°07' W 005°22'0 0.1
2017-Dec-16 08:30N 36°07' W 005°22'0 0.1
2017-Dec-16 07:59N 36°07' W 005°22'0 0.2
2017-Dec-16 07:26N 36°07' W 005°22'1 1.5
2017-Dec-16 06:38N 36°05' W 005°22'0 2.1
2017-Dec-16 06:31N 36°05' W 005°22'2 4.6
2017-Dec-16 06:01N 36°03' W 005°20'3 6.0
2017-Dec-16 05:30N 36°01' W 005°19'4 8.5
2017-Dec-16 05:00N 35°58' W 005°24'613.0
2017-Dec-16 04:30N 35°56' W 005°31'23311.5
2017-Dec-15 08:20N 37°44' W 009°50'1312.6
2017-Dec-15 07:15N 37°57' W 009°54'312.4
2017-Dec-15 07:00N 37°60' W 009°55'1012.7
2017-Dec-15 06:13N 38°10' W 009°58'412.6
2017-Dec-15 05:54N 38°14' W 009°59'512.8
2017-Dec-15 05:30N 38°18' W 010°00'612.8
2017-Dec-15 05:01N 38°25' W 010°02'612.5
2017-Dec-15 04:31N 38°31' W 010°04'612.5
2017-Dec-15 04:00N 38°37' W 010°07'1912.4
2017-Dec-15 02:31N 38°55' W 010°07'1912.8
2017-Dec-15 01:00N 39°14' W 010°06'612.8
2017-Dec-15 00:31N 39°21' W 010°06'  
2017-Dec-12 04:27N 49°51' W 003°21'7 9.6
2017-Dec-12 03:43N 49°54' W 003°11'5 9.3
2017-Dec-12 03:09N 49°57' W 003°05'1 9.2
2017-Dec-12 03:00N 49°57' W 003°03'5 9.1
2017-Dec-12 02:30N 49°59' W 002°56'5 9.0
2017-Dec-12 02:00N 50°01' W 002°49'5 9.1
2017-Dec-12 01:30N 50°02' W 002°43'5 9.1
2017-Dec-12 01:00N 50°03' W 002°36'6 9.6
2017-Dec-12 00:24N 50°05' W 002°27'8511.4
2017-Dec-11 16:59N 50°26' W 000°19'510.1
2017-Dec-11 16:30N 50°27' W 000°11'5 9.7
2017-Dec-11 15:58N 50°28' W 000°03'5 9.4
2017-Dec-11 15:28N 50°28' E 000°04'4 9.3
2017-Dec-11 15:00N 50°30' E 000°11'5 9.5
2017-Dec-11 14:30N 50°31' E 000°18'5 9.7
2017-Dec-11 13:59N 50°33' E 000°25'5 9.9
2017-Dec-11 13:30N 50°34' E 000°32'510.5
2017-Dec-11 13:00N 50°37' E 000°39'611.3
2017-Dec-11 12:30N 50°41' E 000°46'611.8
2017-Dec-11 12:00N 50°45' E 000°53'612.0
2017-Dec-11 11:30N 50°49' E 000°60'612.0
2017-Dec-11 11:00N 50°53' E 001°07'611.9
2017-Dec-11 10:29N 50°57' E 001°14'611.6
2017-Dec-11 10:00N 51°01' E 001°21'611.5
2017-Dec-11 09:30N 51°04' E 001°28'611.4
2017-Dec-11 09:00N 51°08' E 001°35'511.0
2017-Dec-11 08:30N 51°11' E 001°42'510.3
2017-Dec-11 08:01N 51°15' E 001°47'510.3
2017-Dec-11 07:30N 51°20' E 001°51'510.1
2017-Dec-11 07:00N 51°24' E 001°55'510.4
2017-Dec-11 06:30N 51°28' E 002°01'510.7
2017-Dec-11 06:00N 51°32' E 002°07'611.0
2017-Dec-11 05:27N 51°36' E 002°13'8011.8
2017-Dec-10 22:41N 52°39' E 003°33'210.4
2017-Dec-10 22:28N 52°41' E 003°36'510.3
2017-Dec-10 22:00N 52°45' E 003°40'510.1
2017-Dec-10 21:30N 52°49' E 003°45'5 9.9
2017-Dec-10 21:00N 52°52' E 003°51'5 9.6
2017-Dec-10 20:30N 52°56' E 003°56'5 9.9
2017-Dec-10 20:00N 52°59' E 004°02'510.2
2017-Dec-10 19:30N 53°02' E 004°09'510.5
2017-Dec-10 19:00N 53°06' E 004°16'510.6
2017-Dec-10 18:30N 53°09' E 004°23'610.6
2017-Dec-10 17:57N 53°14' E 004°27'811.4
2017-Dec-10 17:17N 53°22' E 004°30'411.5
2017-Dec-10 16:58N 53°25' E 004°32'611.5
2017-Dec-10 16:27N 53°31' E 004°35'511.3
2017-Dec-10 16:00N 53°35' E 004°38'  
Track history (hours):
 
Tides and Currents Weather Stations Pressure Air Temp Water Temp Dewpoint Dewpoint Depression Visibility Wind Speed Wind Dir Waves Ship Positions

NaeSS Absolute

Last reported at 2017-Dec-20 05:37 UTC. Time now 2018-Jan-22 16:22 UTC.
Position N 35°35' E 014°34'.
Warning: this ship's position is 33 days out of date.

Length 200 m; draft 13.2 m.

Type: Cargo ship. MMSI: 538006033.

Date/timePositionNaut miles runAvg speedWind from/ knotsBaromVisibWave heightAir tempDewpointWater temp
2017-Dec-20 05:37N 35°35' E 014°34'211.7
2017-Dec-20 05:29N 35°35' E 014°32'611.1
2017-Dec-20 05:00N 35°38' E 014°27'611.4
2017-Dec-20 04:30N 35°42' E 014°21'611.8
2017-Dec-20 04:00N 35°45' E 014°15'612.2
2017-Dec-20 03:30N 35°48' E 014°09'612.2
2017-Dec-20 03:00N 35°52' E 014°02'611.9
2017-Dec-20 02:30N 35°55' E 013°56'611.8
2017-Dec-20 02:00N 35°58' E 013°50'611.8
2017-Dec-20 01:30N 36°01' E 013°44'  
2017-Dec-16 22:38N 36°01' W 005°14'212.4
2017-Dec-16 22:30N 36°01' W 005°16'511.1
2017-Dec-16 22:01N 36°02' W 005°22'4 8.7
2017-Dec-16 21:31N 36°07' W 005°22'0 0.1
2017-Dec-16 18:17N 36°07' W 005°22'0 0.0
2017-Dec-16 17:14N 36°07' W 005°22'0 0.1
2017-Dec-16 16:17N 36°07' W 005°22'0 0.1
2017-Dec-16 15:50N 36°07' W 005°22'0 0.1
2017-Dec-16 15:29N 36°07' W 005°22'0 0.0
2017-Dec-16 14:59N 36°07' W 005°22'0 0.1
2017-Dec-16 14:29N 36°07' W 005°22'0 0.1
2017-Dec-16 13:59N 36°07' W 005°22'0 0.0
2017-Dec-16 12:47N 36°07' W 005°22'0 0.1
2017-Dec-16 12:20N 36°07' W 005°22'0 0.0
2017-Dec-16 11:59N 36°07' W 005°22'0 0.1
2017-Dec-16 11:29N 36°07' W 005°22'0 0.1
2017-Dec-16 10:23N 36°07' W 005°22'0 0.0
2017-Dec-16 09:57N 36°07' W 005°22'0 0.0
2017-Dec-16 09:30N 36°07' W 005°22'0 0.0
2017-Dec-16 08:59N 36°07' W 005°22'0 0.1
2017-Dec-16 08:30N 36°07' W 005°22'0 0.1
2017-Dec-16 07:59N 36°07' W 005°22'0 0.2
2017-Dec-16 07:26N 36°07' W 005°22'1 1.5
2017-Dec-16 06:38N 36°05' W 005°22'0 2.1
2017-Dec-16 06:31N 36°05' W 005°22'2 4.6
2017-Dec-16 06:01N 36°03' W 005°20'3 6.0
2017-Dec-16 05:30N 36°01' W 005°19'4 8.5
2017-Dec-16 05:00N 35°58' W 005°24'613.0
2017-Dec-16 04:30N 35°56' W 005°31'23311.5
2017-Dec-15 08:20N 37°44' W 009°50'1312.6
2017-Dec-15 07:15N 37°57' W 009°54'312.4
2017-Dec-15 07:00N 37°60' W 009°55'1012.7
2017-Dec-15 06:13N 38°10' W 009°58'412.6
2017-Dec-15 05:54N 38°14' W 009°59'512.8
2017-Dec-15 05:30N 38°18' W 010°00'612.8
2017-Dec-15 05:01N 38°25' W 010°02'612.5
2017-Dec-15 04:31N 38°31' W 010°04'612.5
2017-Dec-15 04:00N 38°37' W 010°07'1912.4
2017-Dec-15 02:31N 38°55' W 010°07'1912.8
2017-Dec-15 01:00N 39°14' W 010°06'612.8
2017-Dec-15 00:31N 39°21' W 010°06'  
2017-Dec-12 04:27N 49°51' W 003°21'7 9.6
2017-Dec-12 03:43N 49°54' W 003°11'5 9.3
2017-Dec-12 03:09N 49°57' W 003°05'1 9.2
2017-Dec-12 03:00N 49°57' W 003°03'5 9.1
2017-Dec-12 02:30N 49°59' W 002°56'5 9.0
2017-Dec-12 02:00N 50°01' W 002°49'5 9.1
2017-Dec-12 01:30N 50°02' W 002°43'5 9.1
2017-Dec-12 01:00N 50°03' W 002°36'6 9.6
2017-Dec-12 00:24N 50°05' W 002°27'8511.4
2017-Dec-11 16:59N 50°26' W 000°19'510.1
2017-Dec-11 16:30N 50°27' W 000°11'5 9.7
2017-Dec-11 15:58N 50°28' W 000°03'5 9.4
2017-Dec-11 15:28N 50°28' E 000°04'4 9.3
2017-Dec-11 15:00N 50°30' E 000°11'5 9.5
2017-Dec-11 14:30N 50°31' E 000°18'5 9.7
2017-Dec-11 13:59N 50°33' E 000°25'5 9.9
2017-Dec-11 13:30N 50°34' E 000°32'510.5
2017-Dec-11 13:00N 50°37' E 000°39'611.3
2017-Dec-11 12:30N 50°41' E 000°46'611.8
2017-Dec-11 12:00N 50°45' E 000°53'612.0
2017-Dec-11 11:30N 50°49' E 000°60'612.0
2017-Dec-11 11:00N 50°53' E 001°07'611.9
2017-Dec-11 10:29N 50°57' E 001°14'611.6
2017-Dec-11 10:00N 51°01' E 001°21'611.5
2017-Dec-11 09:30N 51°04' E 001°28'611.4
2017-Dec-11 09:00N 51°08' E 001°35'511.0
2017-Dec-11 08:30N 51°11' E 001°42'510.3
2017-Dec-11 08:01N 51°15' E 001°47'510.3
2017-Dec-11 07:30N 51°20' E 001°51'510.1
2017-Dec-11 07:00N 51°24' E 001°55'510.4
2017-Dec-11 06:30N 51°28' E 002°01'510.7
2017-Dec-11 06:00N 51°32' E 002°07'611.0
2017-Dec-11 05:27N 51°36' E 002°13'8011.8
2017-Dec-10 22:41N 52°39' E 003°33'210.4
2017-Dec-10 22:28N 52°41' E 003°36'510.3
2017-Dec-10 22:00N 52°45' E 003°40'510.1
2017-Dec-10 21:30N 52°49' E 003°45'5 9.9
2017-Dec-10 21:00N 52°52' E 003°51'5 9.6
2017-Dec-10 20:30N 52°56' E 003°56'5 9.9
2017-Dec-10 20:00N 52°59' E 004°02'510.2
2017-Dec-10 19:30N 53°02' E 004°09'510.5
2017-Dec-10 19:00N 53°06' E 004°16'510.6
2017-Dec-10 18:30N 53°09' E 004°23'610.6
2017-Dec-10 17:57N 53°14' E 004°27'811.4
2017-Dec-10 17:17N 53°22' E 004°30'411.5
2017-Dec-10 16:58N 53°25' E 004°32'611.5
2017-Dec-10 16:27N 53°31' E 004°35'511.3
2017-Dec-10 16:00N 53°35' E 004°38'  

Dump ship's entire track history